Time;durP1;ratioP1;P1;durP2;ratioP2;P2;SDS_P1;SDS_P2;PMS_P1;PMS_P2;Temp;Humidity;BMP_temperature;BMP_pressure;BME280_temperature;BME280_humidity;BME280_pressure;Samples;Min_cycle;Max_cycle;Signal;HPM_P1;HPM_P2
2024/03/13 00:01:17;;;;;;;;;;;;;;;17.60;48.78;100155.34;5037841;28;1070;-47
2024/03/13 00:03:42;;;;;;;;;;;;;;;17.49;48.61;100151.06;5037145;28;1072;-45
2024/03/13 00:06:09;;;;;;;;;;;;;;;16.68;50.80;100154.44;5031470;28;2601;-48
2024/03/13 00:08:35;;;;;;;;;;;;;;;16.35;51.62;100154.97;5037191;28;1906;-48
2024/03/13 00:11:00;;;;;;;;;;;;;;;16.12;51.93;100152.97;5037614;28;1020;-48
2024/03/13 00:13:28;;;;;;;;;;;;;;;15.89;52.68;100150.66;5033959;28;1153;-47
2024/03/13 00:15:53;;;;;;;;;;;;;;;16.58;51.46;100147.09;5018157;28;1087;-44
2024/03/13 00:18:20;;;;;;;;;;;;;;;17.83;48.21;100147.31;5034621;28;968;-44
2024/03/13 00:20:46;;;;;;;;;;;;;;;17.00;49.90;100156.59;5036869;28;1015;-45
2024/03/13 00:23:11;;;;;;;;;;;;;;;16.44;51.22;100157.94;5037526;28;1240;-43
2024/03/13 00:25:37;;;;;;;;;;;;;;;16.13;51.97;100157.34;5037303;28;1122;-47
2024/03/13 00:28:03;;;;;;;;;;;;;;;15.92;52.46;100168.44;5037190;28;1969;-44
2024/03/13 00:30:29;;;;;;;;;;;;;;;16.15;52.45;100160.63;5037657;28;1191;-45
2024/03/13 00:32:55;;;;;;;;;;;;;;;17.61;48.66;100154.19;5037286;28;1151;-48
2024/03/13 00:35:20;;;;;;;;;;;;;;;17.36;48.87;100149.84;5036119;28;2473;-46
2024/03/13 00:37:52;;;;;;;;;;;;;;;16.63;50.87;100151.72;5034824;28;1139;-47
2024/03/13 00:40:17;;;;;;;;;;;;;;;16.29;51.68;100160.81;5025759;28;1417;-45
2024/03/13 00:42:44;;;;;;;;;;;;;;;16.10;51.95;100155.19;5035247;28;1043;-44
2024/03/13 00:45:13;;;;;;;;;;;;;;;15.84;52.47;100152.63;5037067;28;1039;-46
2024/03/13 00:47:38;;;;;;;;;;;;;;;16.61;51.26;100146.53;5036645;28;1099;-44
2024/03/13 00:50:08;;;;;;;;;;;;;;;17.85;47.83;100145.06;5036900;28;1898;-48
2024/03/13 00:52:35;;;;;;;;;;;;;;;17.05;49.83;100150.22;5036996;28;1115;-45
2024/03/13 00:55:01;;;;;;;;;;;;;;;16.50;51.10;100145.78;5024192;28;1218;-46
2024/03/13 00:57:27;;;;;;;;;;;;;;;16.12;51.91;100139.25;5036439;28;1115;-46
2024/03/13 00:59:53;;;;;;;;;;;;;;;15.93;52.29;100141.88;5036745;28;1118;-46
2024/03/13 01:02:20;;;;;;;;;;;;;;;15.98;52.46;100145.38;5036937;28;1099;-49
2024/03/13 01:04:48;;;;;;;;;;;;;;;17.48;48.82;100144.75;5036972;28;1207;-46
2024/03/13 01:07:14;;;;;;;;;;;;;;;17.48;48.62;100136.50;5033488;28;2642;-44
2024/03/13 01:09:40;;;;;;;;;;;;;;;16.68;50.43;100141.50;5035964;28;1901;-47
2024/03/13 01:12:06;;;;;;;;;;;;;;;16.23;51.66;100141.63;5022471;28;1036;-48
2024/03/13 01:14:32;;;;;;;;;;;;;;;16.01;52.32;100133.84;5023540;28;1012;-48
2024/03/13 01:16:58;;;;;;;;;;;;;;;16.62;51.25;100142.69;5017061;28;1047;-47
2024/03/13 01:19:24;;;;;;;;;;;;;;;17.88;47.93;100134.31;5029922;28;1111;-45
2024/03/13 01:21:53;;;;;;;;;;;;;;;16.90;50.19;100149.28;5036650;28;1163;-48
2024/03/13 01:24:21;;;;;;;;;;;;;;;16.49;51.28;100143.34;5036208;28;1046;-45
2024/03/13 01:26:49;;;;;;;;;;;;;;;16.20;51.56;100144.97;5035900;28;1075;-48
2024/03/13 01:29:15;;;;;;;;;;;;;;;15.97;52.28;100142.94;5035863;28;1973;-46
2024/03/13 01:31:40;;;;;;;;;;;;;;;16.84;50.42;100144.09;5035985;28;1059;-46
2024/03/13 01:34:06;;;;;;;;;;;;;;;17.76;48.01;100143.00;5036082;28;1131;-48
2024/03/13 01:39:20;;;;;;;;;;;;;;;16.27;51.36;100141.06;5035362;28;1084;-45
2024/03/13 01:55:35;;;;;;;;;;;;;;;15.99;52.27;100114.13;5034708;28;1175;-49
2024/03/13 02:03:11;;;;;;;;;;;;;;;17.63;48.27;100116.25;5034803;28;1156;-46
2024/03/13 02:05:37;;;;;;;;;;;;;;;17.33;48.93;100117.47;5022554;28;2585;-45
2024/03/13 02:08:05;;;;;;;;;;;;;;;16.51;50.84;100121.91;5035409;28;1910;-44
2024/03/13 02:10:31;;;;;;;;;;;;;;;16.16;51.98;100118.38;5023158;28;1020;-43
2024/03/13 02:13:03;;;;;;;;;;;;;;;15.98;52.25;100112.47;5035161;28;1114;-46
2024/03/13 02:15:28;;;;;;;;;;;;;;;16.86;50.49;100114.44;5035996;28;1075;-45
2024/03/13 02:17:54;;;;;;;;;;;;;;;17.90;47.60;100112.00;5035862;28;1190;-43
2024/03/13 02:20:22;;;;;;;;;;;;;;;16.82;50.10;100114.19;5035987;28;1075;-48
2024/03/13 02:22:47;;;;;;;;;;;;;;;16.40;51.28;100111.03;5038455;28;1075;-46
2024/03/13 02:25:13;;;;;;;;;;;;;;;16.18;51.83;100116.16;5039439;28;876;-44
2024/03/13 02:27:39;;;;;;;;;;;;;;;16.02;51.87;100119.03;5040060;28;1035;-48
2024/03/13 02:30:05;;;;;;;;;;;;;;;17.07;49.96;100115.06;5039399;28;1969;-45
2024/03/13 02:32:32;;;;;;;;;;;;;;;17.43;48.65;100104.41;5026170;28;1113;-47
2024/03/13 02:34:58;;;;;;;;;;;;;;;16.52;51.11;100099.69;5038603;28;1203;-47
2024/03/13 02:37:24;;;;;;;;;;;;;;;16.29;51.25;100103.19;5036102;28;2817;-47
2024/03/13 02:39:49;;;;;;;;;;;;;;;15.98;52.21;100108.94;5039364;28;1235;-46
2024/03/13 02:42:16;;;;;;;;;;;;;;;15.90;52.53;100107.59;5039187;28;1023;-44
2024/03/13 02:44:44;;;;;;;;;;;;;;;17.43;48.99;100101.66;5039536;28;1024;-49
2024/03/13 02:47:09;;;;;;;;;;;;;;;17.32;48.85;100099.34;5039368;28;1207;-45
2024/03/13 02:49:35;;;;;;;;;;;;;;;16.53;51.05;100112.28;5039115;28;1973;-43
2024/03/13 02:52:01;;;;;;;;;;;;;;;16.18;51.76;100106.00;5070759;28;1047;-49
2024/03/13 02:54:27;;;;;;;;;;;;;;;15.98;52.21;100109.75;5038409;28;1059;-45
2024/03/13 02:56:53;;;;;;;;;;;;;;;15.84;52.53;100108.75;5038664;28;1145;-45
2024/03/13 02:59:20;;;;;;;;;;;;;;;17.34;49.17;100108.13;5039362;28;1301;-43
2024/03/13 03:01:48;;;;;;;;;;;;;;;17.63;47.90;100110.75;5038707;28;1160;-49
2024/03/13 03:04:14;;;;;;;;;;;;;;;16.71;50.54;100113.47;5038687;28;1127;-47
2024/03/13 03:06:40;;;;;;;;;;;;;;;16.32;51.52;100103.41;5029244;28;2650;-44
2024/03/13 03:09:06;;;;;;;;;;;;;;;16.05;51.85;100107.50;5039005;28;1902;-47
2024/03/13 03:11:31;;;;;;;;;;;;;;;15.87;52.40;100099.94;5038666;28;1114;-46
2024/03/13 03:13:57;;;;;;;;;;;;;;;16.87;50.18;100096.84;5038524;28;880;-46
2024/03/13 03:16:22;;;;;;;;;;;;;;;17.99;47.38;100087.41;5038887;28;1072;-47
2024/03/13 03:18:49;;;;;;;;;;;;;;;17.08;49.38;100090.03;5038610;28;1126;-44
2024/03/13 03:21:14;;;;;;;;;;;;;;;16.43;51.02;100088.50;5038718;28;1035;-45
2024/03/13 03:23:40;;;;;;;;;;;;;;;16.18;51.43;100094.22;5062129;28;1007;-46
2024/03/13 03:26:05;;;;;;;;;;;;;;;15.93;52.22;100098.00;5032267;28;1049;-46
2024/03/13 03:28:31;;;;;;;;;;;;;;;15.79;52.41;100093.13;5038432;28;1960;-47
2024/03/13 03:30:58;;;;;;;;;;;;;;;16.68;50.62;100103.06;5038725;28;1051;-43
2024/03/13 03:33:23;;;;;;;;;;;;;;;17.84;47.91;100103.00;5037908;28;1059;-43
2024/03/13 03:35:49;;;;;;;;;;;;;;;17.07;49.40;100096.63;5038030;28;2704;-46
2024/03/13 03:38:14;;;;;;;;;;;;;;;16.44;51.21;100108.53;5037933;28;921;-43
2024/03/13 03:40:40;;;;;;;;;;;;;;;16.24;51.36;100104.88;5036564;28;1198;-45
2024/03/13 03:43:06;;;;;;;;;;;;;;;15.94;51.99;100102.38;5059227;28;1051;-46
2024/03/13 03:45:32;;;;;;;;;;;;;;;16.17;52.07;100095.31;5029070;28;1052;-44
2024/03/13 03:47:57;;;;;;;;;;;;;;;17.63;48.30;100097.00;5038492;28;1271;-43
2024/03/13 03:50:23;;;;;;;;;;;;;;;17.18;49.19;100091.00;5037757;28;1906;-45
2024/03/13 03:52:49;;;;;;;;;;;;;;;16.50;51.10;100099.13;5038597;28;1154;-46
2024/03/13 03:55:15;;;;;;;;;;;;;;;16.22;51.60;100092.53;5038154;28;1230;-45
2024/03/13 03:57:41;;;;;;;;;;;;;;;16.00;51.99;100098.47;5038198;28;1201;-44
2024/03/13 04:00:07;;;;;;;;;;;;;;;15.81;52.59;100099.19;5038397;28;1238;-44
2024/03/13 04:02:33;;;;;;;;;;;;;;;17.31;49.24;100098.53;5027836;28;955;-47
2024/03/13 04:04:58;;;;;;;;;;;;;;;17.96;47.40;100097.06;5031492;28;1132;-46
2024/03/13 04:07:24;;;;;;;;;;;;;;;16.86;49.77;100087.78;5031320;28;1052;-47
2024/03/13 04:09:49;;;;;;;;;;;;;;;16.43;51.28;100088.50;5030306;28;1993;-47
2024/03/13 04:12:15;;;;;;;;;;;;;;;16.19;51.68;100098.63;5024805;28;1190;-44
2024/03/13 04:14:40;;;;;;;;;;;;;;;15.95;52.25;100091.13;5037613;28;975;-46
2024/03/13 04:17:09;;;;;;;;;;;;;;;16.65;50.88;100098.19;5036608;28;1039;-48
2024/03/13 04:19:35;;;;;;;;;;;;;;;17.90;47.65;100090.00;5037610;28;2807;-47
2024/03/13 04:22:00;;;;;;;;;;;;;;;16.98;49.67;100094.81;5037474;28;1086;-49
2024/03/13 04:24:26;;;;;;;;;;;;;;;16.43;51.22;100096.72;5037732;28;1143;-53
2024/03/13 04:26:51;;;;;;;;;;;;;;;16.15;51.65;100094.81;5037199;28;1047;-48
2024/03/13 04:29:17;;;;;;;;;;;;;;;16.01;52.09;100083.69;5037725;28;1983;-50
2024/03/13 04:31:42;;;;;;;;;;;;;;;15.83;52.44;100093.41;5036846;28;1074;-51
2024/03/13 04:34:08;;;;;;;;;;;;;;;17.20;49.45;100092.34;5037527;28;1059;-50
2024/03/13 04:36:38;;;;;;;;;;;;;;;17.63;47.98;100077.75;5023958;28;1178;-51
2024/03/13 04:39:05;;;;;;;;;;;;;;;16.65;50.59;100094.59;5036642;28;949;-51
2024/03/13 04:41:31;;;;;;;;;;;;;;;16.23;51.64;100094.19;5037496;28;1111;-52
2024/03/13 04:43:56;;;;;;;;;;;;;;;16.05;51.88;100091.03;5036948;28;1139;-52
2024/03/13 04:46:22;;;;;;;;;;;;;;;15.86;52.24;100098.31;5029782;28;1159;-53
2024/03/13 04:48:47;;;;;;;;;;;;;;;16.86;50.26;100092.47;5027756;28;2548;-52
2024/03/13 04:51:16;;;;;;;;;;;;;;;17.85;47.66;100092.81;5036765;28;1077;-48
2024/03/13 04:53:45;;;;;;;;;;;;;;;16.73;50.47;100099.44;5036990;28;1183;-51
2024/03/13 04:56:11;;;;;;;;;;;;;;;16.26;51.43;100093.63;5027827;28;1124;-52
2024/03/13 04:58:37;;;;;;;;;;;;;;;16.06;52.15;100102.81;5032489;28;1096;-52
2024/03/13 05:01:03;;;;;;;;;;;;;;;15.88;52.57;100098.84;5036673;28;1047;-49
2024/03/13 05:03:31;;;;;;;;;;;;;;;16.43;51.56;100102.22;5036611;28;845;-47
2024/03/13 05:06:01;;;;;;;;;;;;;;;17.77;47.94;100099.81;5079288;27;470736;-51
2024/03/13 05:08:27;;;;;;;;;;;;;;;16.85;49.91;100112.78;5113793;28;1074;-47
2024/03/13 05:10:52;;;;;;;;;;;;;;;16.88;50.17;100112.22;5103773;28;1190;-48
2024/03/13 05:13:18;;;;;;;;;;;;;;;18.29;46.67;100113.59;5109826;28;1166;-46
2024/03/13 05:15:44;;;;;;;;;;;;;;;16.76;49.83;100120.84;5103708;28;1148;-48
2024/03/13 05:18:09;;;;;;;;;;;;;;;18.24;46.70;100117.28;5110917;28;2367;-50
2024/03/13 05:20:36;;;;;;;;;;;;;;;17.89;47.20;100119.44;5103430;28;1065;-50
2024/03/13 05:23:01;;;;;;;;;;;;;;;16.96;48.68;100117.09;5106412;28;1178;-50
2024/03/13 05:25:27;;;;;;;;;;;;;;;17.36;48.90;100117.72;5102016;28;1905;-46
2024/03/13 05:27:53;;;;;;;;;;;;;;;17.69;48.17;100126.03;5085880;28;1225;-49
2024/03/13 05:30:18;;;;;;;;;;;;;;;16.91;48.89;100117.97;5069153;28;1393;-52
2024/03/13 05:32:44;;;;;;;;;;;;;;;17.25;49.31;100121.69;5083456;28;1358;-49
2024/03/13 05:35:09;;;;;;;;;;;;;;;17.60;48.21;100125.09;5074869;28;1126;-48
2024/03/13 05:37:35;;;;;;;;;;;;;;;17.16;49.56;100117.97;5079671;28;1259;-49
2024/03/13 05:40:43;;;;;;;;;;;;;;;18.77;45.83;100112.47;5089479;28;971;-49
2024/03/13 05:42:49;;;;;;;;;;;;;;;17.36;48.60;100122.38;5068082;28;1601;-51
2024/03/13 05:45:15;;;;;;;;;;;;;;;17.63;48.71;100124.50;5072385;28;1903;-48
2024/03/13 05:47:41;;;;;;;;;;;;;;;17.82;48.06;100123.66;5099040;28;2540;-49
2024/03/13 05:50:06;;;;;;;;;;;;;;;17.09;48.55;100130.09;5086623;28;1232;-48
2024/03/13 05:52:32;;;;;;;;;;;;;;;17.84;48.13;100130.50;5089067;28;1127;-49
2024/03/13 05:54:58;;;;;;;;;;;;;;;18.08;47.40;100130.44;5087432;28;1370;-49
2024/03/13 05:57:23;;;;;;;;;;;;;;;17.37;48.67;100133.06;5104030;28;1247;-52
2024/03/13 05:59:49;;;;;;;;;;;;;;;18.94;45.65;100136.69;5104074;28;916;-47
2024/03/13 06:02:15;;;;;;;;;;;;;;;17.82;47.92;100140.16;5100167;28;1169;-48
2024/03/13 06:04:40;;;;;;;;;;;;;;;17.26;48.15;100145.31;5096065;28;1906;-51
2024/03/13 06:07:06;;;;;;;;;;;;;;;18.17;47.68;100138.03;5102277;28;1229;-49
2024/03/13 06:09:31;;;;;;;;;;;;;;;17.59;48.49;100129.75;5079296;28;1380;-46
2024/03/13 06:11:57;;;;;;;;;;;;;;;17.14;48.15;100139.41;5092520;28;1201;-48
2024/03/13 06:14:22;;;;;;;;;;;;;;;17.99;48.39;100140.47;5094897;28;1289;-48
2024/03/13 06:16:48;;;;;;;;;;;;;;;17.41;48.79;100145.09;5102803;28;1097;-47
2024/03/13 06:19:13;;;;;;;;;;;;;;;16.99;48.50;100135.72;5073752;28;2517;-47
2024/03/13 06:21:39;;;;;;;;;;;;;;;17.87;48.52;100137.34;5076914;28;1154;-48
2024/03/13 06:24:05;;;;;;;;;;;;;;;17.31;48.87;100138.94;5086104;28;1909;-49
2024/03/13 06:26:31;;;;;;;;;;;;;;;18.05;48.30;100138.50;5088521;28;1093;-49
2024/03/13 06:31:40;;;;;;;;;;;;;;;17.36;48.36;100139.69;5086657;28;948;-46
2024/03/13 06:34:08;;;;;;;;;;;;;;;18.81;46.30;100141.03;5096982;28;1082;-52
2024/03/13 06:36:37;;;;;;;;;;;;;;;17.82;48.04;100140.16;5086557;28;1182;-50
2024/03/13 06:39:03;;;;;;;;;;;;;;;17.37;47.89;100138.56;5088605;28;1090;-47
2024/03/13 06:41:29;;;;;;;;;;;;;;;17.38;48.00;100137.47;5086911;28;1067;-49
2024/03/13 06:43:55;;;;;;;;;;;;;;;17.76;48.29;100143.00;5098028;28;1897;-50
2024/03/13 06:46:20;;;;;;;;;;;;;;;17.13;48.57;100148.78;5098426;28;1078;-45
2024/03/13 06:48:46;;;;;;;;;;;;;;;17.38;48.93;100136.66;5087908;28;2524;-48
2024/03/13 06:51:12;;;;;;;;;;;;;;;17.23;49.06;100143.16;5079654;28;1402;-49
2024/03/13 06:53:38;;;;;;;;;;;;;;;18.50;47.17;100149.03;5081783;28;1111;-51
2024/03/13 06:56:04;;;;;;;;;;;;;;;18.90;46.00;100143.94;5089627;28;1038;-49
2024/03/13 06:58:29;;;;;;;;;;;;;;;17.64;48.40;100150.84;5092179;28;1070;-49
2024/03/13 07:00:55;;;;;;;;;;;;;;;17.32;47.99;100155.13;5098120;28;1042;-50
2024/03/13 07:03:23;;;;;;;;;;;;;;;17.85;48.61;100147.81;5091927;28;1019;-46
2024/03/13 07:05:52;;;;;;;;;;;;;;;17.68;48.58;100149.16;5086455;28;1910;-44
2024/03/13 07:08:18;;;;;;;;;;;;;;;17.17;48.19;100152.56;5095717;28;1066;-51
2024/03/13 07:10:44;;;;;;;;;;;;;;;17.95;48.59;100161.47;5088943;28;1134;-45
2024/03/13 07:13:09;;;;;;;;;;;;;;;18.16;48.03;100166.66;5093280;28;1003;-50
2024/03/13 07:15:35;;;;;;;;;;;;;;;17.34;48.67;100163.88;5079775;28;1127;-48
2024/03/13 07:18:03;;;;;;;;;;;;;;;17.68;49.28;100164.84;5093497;28;2497;-51
2024/03/13 07:20:28;;;;;;;;;;;;;;;18.28;47.77;100164.25;5093884;28;1000;-47
2024/03/13 07:22:54;;;;;;;;;;;;;;;17.41;48.62;100169.03;5097327;28;1101;-47
2024/03/13 07:25:19;;;;;;;;;;;;;;;18.22;48.44;100162.72;5094900;28;1982;-47
2024/03/13 07:27:45;;;;;;;;;;;;;;;17.83;48.45;100169.31;5076594;28;903;-46
2024/03/13 07:30:11;;;;;;;;;;;;;;;17.28;48.42;100154.09;5089094;28;1790;-45
2024/03/13 07:32:36;;;;;;;;;;;;;;;17.07;47.97;100165.31;5087705;28;995;-47
2024/03/13 07:35:03;;;;;;;;;;;;;;;18.57;47.37;100154.97;5083782;28;979;-51
2024/03/13 07:37:29;;;;;;;;;;;;;;;17.58;48.65;100157.53;5097635;28;1031;-44
2024/03/13 07:39:55;;;;;;;;;;;;;;;17.15;48.48;100160.28;5079566;28;1210;-49
2024/03/13 07:42:20;;;;;;;;;;;;;;;18.67;47.17;100160.28;5090845;28;1182;-50
2024/03/13 07:44:46;;;;;;;;;;;;;;;17.53;48.79;100160.34;5084064;28;1910;-49
2024/03/13 07:47:12;;;;;;;;;;;;;;;17.19;48.39;100161.31;5086205;28;1039;-52
2024/03/13 07:49:37;;;;;;;;;;;;;;;18.45;47.55;100163.69;5092883;28;2888;-51
2024/03/13 07:52:03;;;;;;;;;;;;;;;17.45;48.84;100164.59;5090074;28;1011;-46
2024/03/13 07:54:29;;;;;;;;;;;;;;;17.21;48.12;100167.34;5083552;28;1186;-47
2024/03/13 07:56:54;;;;;;;;;;;;;;;17.35;48.83;100165.53;5079760;28;1216;-49
2024/03/13 07:59:25;;;;;;;;;;;;;;;18.35;47.88;100161.94;5078721;28;1086;-50
2024/03/13 08:01:51;;;;;;;;;;;;;;;17.41;49.00;100164.34;5073478;28;1427;-51
2024/03/13 08:04:16;;;;;;;;;;;;;;;17.78;49.19;100164.69;5075106;28;1982;-45
2024/03/13 08:06:42;;;;;;;;;;;;;;;17.98;48.51;100171.03;5062328;28;1211;-45
2024/03/13 08:09:07;;;;;;;;;;;;;;;17.39;48.61;100165.75;5071687;28;1174;-51
2024/03/13 08:11:33;;;;;;;;;;;;;;;17.06;48.61;100169.16;5068232;28;1119;-49
2024/03/13 08:13:59;;;;;;;;;;;;;;;18.24;48.09;100157.72;5063787;28;1234;-49
2024/03/13 08:16:25;;;;;;;;;;;;;;;17.30;49.03;100162.03;5086208;28;1098;-46
2024/03/13 08:18:51;;;;;;;;;;;;;;;17.30;48.70;100153.78;5082949;28;2520;-50
2024/03/13 08:21:16;;;;;;;;;;;;;;;18.17;48.23;100157.28;5096190;28;1046;-49
2024/03/13 08:23:44;;;;;;;;;;;;;;;17.21;49.09;100159.94;5096060;28;1902;-50
2024/03/13 08:26:10;;;;;;;;;;;;;;;16.92;48.15;100163.53;5096688;28;1003;-49
2024/03/13 08:28:37;;;;;;;;;;;;;;;17.90;48.82;100164.25;5085332;28;1019;-52
2024/03/13 08:31:05;;;;;;;;;;;;;;;17.33;49.55;100167.75;5085256;28;1047;-48
2024/03/13 08:33:33;;;;;;;;;;;;;;;18.96;46.81;100167.53;5076509;28;1127;-50
2024/03/13 08:36:01;;;;;;;;;;;;;;;18.15;47.90;100162.28;5076427;28;1086;-53
2024/03/13 08:38:27;;;;;;;;;;;;;;;17.50;48.27;100166.44;5089787;28;1122;-53
2024/03/13 08:40:54;;;;;;;;;;;;;;;17.19;47.91;100156.63;5092545;28;891;-50
2024/03/13 08:43:20;;;;;;;;;;;;;;;18.50;47.84;100160.06;5082609;28;1083;-46
2024/03/13 08:45:46;;;;;;;;;;;;;;;17.72;48.81;100165.88;5094103;28;1905;-51
2024/03/13 08:48:11;;;;;;;;;;;;;;;17.34;48.35;100169.38;5084279;28;2494;-49
2024/03/13 08:50:37;;;;;;;;;;;;;;;17.05;47.98;100173.00;5094510;28;1193;-47
2024/03/13 08:53:03;;;;;;;;;;;;;;;17.92;48.75;100173.03;5085327;28;911;-46
2024/03/13 08:55:32;;;;;;;;;;;;;;;17.24;48.73;100166.78;5087902;28;1123;-51
2024/03/13 08:57:58;;;;;;;;;;;;;;;18.41;48.04;100158.00;5083863;28;1147;-48
2024/03/13 09:00:24;;;;;;;;;;;;;;;17.77;48.94;100157.56;5082928;28;1139;-52
2024/03/13 09:02:55;;;;;;;;;;;;;;;17.22;48.57;100161.56;5096139;28;1027;-54
2024/03/13 09:05:21;;;;;;;;;;;;;;;17.93;48.90;100164.50;5094434;28;1974;-50
2024/03/13 09:07:46;;;;;;;;;;;;;;;17.52;48.91;100158.75;5095941;28;1046;-51
2024/03/13 09:10:12;;;;;;;;;;;;;;;17.07;48.46;100164.50;5078067;28;1073;-50
2024/03/13 09:12:38;;;;;;;;;;;;;;;17.14;48.46;100164.13;5083454;28;1119;-50
2024/03/13 09:15:05;;;;;;;;;;;;;;;17.55;48.98;100158.13;5081286;28;1217;-51
2024/03/13 09:17:31;;;;;;;;;;;;;;;17.06;48.63;100160.91;5076018;28;2432;-52
2024/03/13 09:19:56;;;;;;;;;;;;;;;18.30;48.47;100168.34;5067020;28;1309;-49
2024/03/13 09:22:22;;;;;;;;;;;;;;;17.38;48.96;100167.69;5066922;28;1088;-49
2024/03/13 09:24:48;;;;;;;;;;;;;;;18.00;49.18;100171.56;5065787;28;1972;-51
2024/03/13 09:27:13;;;;;;;;;;;;;;;18.26;48.29;100166.50;5060169;28;1623;-48
2024/03/13 09:29:39;;;;;;;;;;;;;;;17.37;48.88;100168.78;5075147;28;1103;-50
2024/03/13 09:32:05;;;;;;;;;;;;;;;17.43;48.94;100166.78;5074866;28;1329;-49
2024/03/13 09:34:31;;;;;;;;;;;;;;;17.48;48.99;100168.69;5074646;28;1254;-51
2024/03/13 09:37:00;;;;;;;;;;;;;;;17.30;49.03;100173.81;5070297;28;1293;-46
2024/03/13 09:39:26;;;;;;;;;;;;;;;18.69;47.38;100169.09;5072749;28;1392;-47
2024/03/13 09:41:53;;;;;;;;;;;;;;;17.56;48.98;100170.78;5074412;28;1412;-52
2024/03/13 09:44:19;;;;;;;;;;;;;;;17.13;48.18;100170.75;5071756;28;1901;-47
2024/03/13 09:46:44;;;;;;;;;;;;;;;18.19;48.66;100177.03;5073467;28;1356;-47
2024/03/13 09:49:10;;;;;;;;;;;;;;;17.27;49.29;100186.22;5052221;28;2515;-52
2024/03/13 09:51:36;;;;;;;;;;;;;;;17.51;49.10;100184.56;5072483;28;1256;-49
2024/03/13 09:54:02;;;;;;;;;;;;;;;17.76;49.05;100186.97;5056138;28;1121;-53
2024/03/13 09:56:27;;;;;;;;;;;;;;;17.20;48.86;100182.19;5054682;28;1384;-51
2024/03/13 09:58:54;;;;;;;;;;;;;;;17.57;49.03;100184.22;5085185;28;1312;-46
2024/03/13 10:01:20;;;;;;;;;;;;;;;17.19;49.13;100194.28;5076607;28;1401;-51
2024/03/13 10:03:49;;;;;;;;;;;;;;;17.69;49.63;100193.97;5062007;28;1921;-50
2024/03/13 10:06:14;;;;;;;;;;;;;;;18.35;48.16;100194.16;5056002;28;1305;-49
2024/03/13 10:08:41;;;;;;;;;;;;;;;17.43;49.01;100195.13;5063988;28;1149;-51
2024/03/13 10:11:06;;;;;;;;;;;;;;;17.54;49.21;100184.00;5067970;28;1231;-49
2024/03/13 10:13:33;;;;;;;;;;;;;;;17.49;49.19;100192.28;5094167;28;1148;-49
2024/03/13 10:15:59;;;;;;;;;;;;;;;17.18;48.46;100193.47;5066440;28;952;-53
2024/03/13 10:18:24;;;;;;;;;;;;;;;18.33;48.38;100190.88;5068443;28;2608;-50
2024/03/13 10:20:54;;;;;;;;;;;;;;;17.44;49.01;100191.22;5052773;28;1261;-48
2024/03/13 10:23:20;;;;;;;;;;;;;;;17.14;48.36;100197.09;5075141;28;1131;-50
2024/03/13 10:25:45;;;;;;;;;;;;;;;18.09;48.89;100195.38;5050139;28;1918;-49
2024/03/13 10:28:13;;;;;;;;;;;;;;;17.30;49.00;100201.31;5069162;28;1070;-49
2024/03/13 10:30:39;;;;;;;;;;;;;;;18.20;48.91;100193.28;5047424;28;1377;-49
2024/03/13 10:33:04;;;;;;;;;;;;;;;18.09;48.52;100195.38;5066321;28;1106;-47
2024/03/13 10:35:30;;;;;;;;;;;;;;;17.61;49.10;100200.94;5065013;28;1294;-49
2024/03/13 10:37:56;;;;;;;;;;;;;;;19.18;46.62;100199.06;5073977;28;1269;-47
2024/03/13 10:40:24;;;;;;;;;;;;;;;17.92;48.65;100195.06;5083030;28;1012;-43
2024/03/13 10:42:50;;;;;;;;;;;;;;;17.42;48.41;100196.22;5079446;28;1396;-47
2024/03/13 10:45:15;;;;;;;;;;;;;;;17.20;48.07;100184.94;5077640;28;1918;-51
2024/03/13 10:47:42;;;;;;;;;;;;;;;17.39;47.66;100191.31;5097415;28;2576;-47
2024/03/13 10:50:11;;;;;;;;;;;;;;;17.60;49.16;100189.13;5086034;28;1055;-49
2024/03/13 10:52:37;;;;;;;;;;;;;;;17.12;48.73;100189.13;5091574;28;1022;-51
2024/03/13 10:55:03;;;;;;;;;;;;;;;18.56;48.18;100178.91;5066454;28;1336;-51
2024/03/13 10:57:29;;;;;;;;;;;;;;;17.59;48.96;100179.25;5068500;28;968;-50
2024/03/13 10:59:54;;;;;;;;;;;;;;;17.14;48.92;100186.09;5059953;28;1067;-50
2024/03/13 11:02:20;;;;;;;;;;;;;;;17.88;49.30;100171.97;5066024;28;1055;-46
2024/03/13 11:04:45;;;;;;;;;;;;;;;18.10;48.80;100183.25;5067435;28;1909;-51
2024/03/13 11:07:15;;;;;;;;;;;;;;;17.34;49.04;100179.56;5095176;28;1072;-44
2024/03/13 11:09:41;;;;;;;;;;;;;;;17.52;49.00;100170.53;5087245;28;1027;-50
2024/03/13 11:12:18;;;;;;;;;;;;;;;17.88;48.93;100172.81;5096130;28;992;-48
2024/03/13 11:14:47;;;;;;;;;;;;;;;17.30;48.65;100171.09;5085522;28;1085;-49
2024/03/13 11:17:13;;;;;;;;;;;;;;;18.32;48.77;100165.28;5090942;28;1004;-46
2024/03/13 11:19:38;;;;;;;;;;;;;;;17.59;49.21;100164.69;5059586;28;2655;-50
2024/03/13 11:22:03;;;;;;;;;;;;;;;17.11;48.95;100171.03;5073199;28;965;-49
2024/03/13 11:24:29;;;;;;;;;;;;;;;17.43;49.24;100166.78;5090788;28;1909;-49
2024/03/13 11:26:57;;;;;;;;;;;;;;;18.07;49.01;100161.00;5084123;28;992;-45
2024/03/13 11:29:27;;;;;;;;;;;;;;;17.23;49.05;100151.38;5066164;28;1007;-49
2024/03/13 11:31:52;;;;;;;;;;;;;;;17.07;48.33;100167.25;5079917;28;1217;-47
2024/03/13 11:34:19;;;;;;;;;;;;;;;17.12;48.01;100163.59;5077840;28;1046;-49
2024/03/13 11:36:44;;;;;;;;;;;;;;;18.61;48.25;100154.06;5067566;28;1110;-47
2024/03/13 11:39:16;;;;;;;;;;;;;;;17.51;49.44;100146.91;5078785;28;1117;-44
2024/03/13 11:41:42;;;;;;;;;;;;;;;17.15;48.75;100152.03;5080440;28;881;-47
2024/03/13 11:44:08;;;;;;;;;;;;;;;17.63;49.52;100154.72;5090763;28;1913;-48
2024/03/13 11:46:43;;;;;;;;;;;;;;;17.75;49.31;100159.78;5085222;28;1044;-49
2024/03/13 11:49:09;;;;;;;;;;;;;;;17.16;48.76;100153.69;5068503;28;2552;-50
2024/03/13 11:51:36;;;;;;;;;;;;;;;17.82;49.09;100154.72;5083955;28;1199;-48
2024/03/13 11:54:11;;;;;;;;;;;;;;;17.64;49.36;100156.34;5065861;28;1120;-49
2024/03/13 11:56:37;;;;;;;;;;;;;;;17.06;48.92;100152.66;5059711;28;1060;-49
2024/03/13 11:59:03;;;;;;;;;;;;;;;18.36;48.53;100155.31;5068308;28;1328;-45
2024/03/13 12:01:30;;;;;;;;;;;;;;;17.49;49.44;100153.81;5084387;28;1205;-48
2024/03/13 12:03:57;;;;;;;;;;;;;;;17.14;48.36;100158.63;5092502;28;1968;-51
2024/03/13 12:06:23;;;;;;;;;;;;;;;18.37;48.53;100156.13;5067247;28;999;-50
2024/03/13 12:08:49;;;;;;;;;;;;;;;17.46;49.41;100155.25;5086626;28;1039;-47
2024/03/13 12:11:16;;;;;;;;;;;;;;;17.15;48.54;100150.09;5086498;28;1277;-49
2024/03/13 12:13:41;;;;;;;;;;;;;;;18.44;48.55;100154.63;5079245;28;1075;-45
2024/03/13 12:16:07;;;;;;;;;;;;;;;17.49;49.44;100149.16;5083283;28;1162;-47
2024/03/13 12:18:32;;;;;;;;;;;;;;;17.18;48.55;100157.78;5077402;28;2436;-49
2024/03/13 12:20:58;;;;;;;;;;;;;;;18.16;48.69;100156.47;5081900;28;1504;-49
2024/03/13 12:23:23;;;;;;;;;;;;;;;17.26;49.26;100148.03;5076697;28;1016;-49
2024/03/13 12:25:49;;;;;;;;;;;;;;;17.10;48.79;100163.91;5074990;28;1910;-51
2024/03/13 12:28:20;;;;;;;;;;;;;;;18.72;47.99;100157.47;5077176;28;1212;-50
2024/03/13 12:30:48;;;;;;;;;;;;;;;17.61;49.10;100159.69;5052125;28;1036;-50
2024/03/13 12:33:14;;;;;;;;;;;;;;;17.28;48.28;100149.41;5091446;28;1047;-46
2024/03/13 12:35:40;;;;;;;;;;;;;;;17.06;47.52;100147.19;5096327;28;1031;-44
2024/03/13 12:38:05;;;;;;;;;;;;;;;18.45;48.43;100150.75;5083303;28;1015;-47
2024/03/13 12:40:33;;;;;;;;;;;;;;;17.38;49.47;100142.94;5096576;28;1026;-46
2024/03/13 12:43:00;;;;;;;;;;;;;;;17.12;48.50;100142.44;5071260;28;1239;-48
2024/03/13 12:45:26;;;;;;;;;;;;;;;18.15;48.91;100148.53;5064220;28;1975;-45
2024/03/13 12:47:51;;;;;;;;;;;;;;;17.32;49.18;100143.31;5095006;28;2543;-51
2024/03/13 12:50:17;;;;;;;;;;;;;;;17.04;48.40;100146.66;5096351;28;1078;-46
2024/03/13 12:52:44;;;;;;;;;;;;;;;18.49;48.48;100147.41;5095908;28;1086;-46
2024/03/13 12:55:10;;;;;;;;;;;;;;;17.65;49.12;100143.44;5054000;28;1251;-47
2024/03/13 12:57:36;;;;;;;;;;;;;;;17.22;48.62;100144.25;5071638;28;931;-48
2024/03/13 13:00:14;;;;;;;;;;;;;;;17.09;48.56;100146.59;5077882;28;1020;-48
2024/03/13 13:02:43;;;;;;;;;;;;;;;17.42;49.06;100155.00;5065748;28;1199;-51
2024/03/13 13:05:08;;;;;;;;;;;;;;;17.10;47.99;100150.16;5064425;28;1972;-48
2024/03/13 13:07:35;;;;;;;;;;;;;;;18.13;48.84;100157.03;5085986;28;1046;-48